Terminal Aerodrome Forecast
Issued by NWS

Home | Current Version | Previous Version | Text Only | Print | Product List | Glossary On
Versions: 1 2 3 4 5 6 7 8 9 10 11 12 13 14 15 16 17 18 19 20 21 22
180
FTUS43 KIND 231132
TAFLAF
TAF
KLAF 231132Z 2312/2412 15004KT 2SM BR VCSH OVC004 WS020/20035KT
     FM231400 21006KT 2SM BR VCSH OVC003
     FM231600 24009KT 4SM BR OVC008
     FM231800 26012KT P6SM OVC008
     FM232300 27007KT P6SM BKN020
     FM240600 36005KT 5SM -RA BR OVC020
     FM241100 05008KT 3SM -RA BR OVC008
      AMD LTD TO CLD VIS AND WIND TIL 231400=

USA.gov is the U.S. government's official web portal to all federal, state and local government web resources and services.